Time;durP1;ratioP1;P1;durP2;ratioP2;P2;SDS_P1;SDS_P2;PMS_P1;PMS_P2;Temp;Humidity;BMP_temperature;BMP_pressure;BME280_temperature;BME280_humidity;BME280_pressure;Samples;Min_cycle;Max_cycle;Signal;HPM_P1;HPM_P2
2021/08/03 00:01:03;;;;;;;2.60;1.22;;;;;;;13.62;84.16;96466.42;1749215;80;20952;-78
2021/08/03 00:03:38;;;;;;;2.40;1.70;;;;;;;13.61;84.07;96463.52;1729656;80;21015;-78
2021/08/03 00:06:10;;;;;;;2.62;1.70;;;;;;;13.62;84.13;96462.50;1748564;80;21047;-79
2021/08/03 00:08:38;;;;;;;;;;;;;;;13.61;84.27;96461.41;1749790;80;20954;-78
2021/08/03 00:11:05;;;;;;;4.97;1.67;;;;;;;13.60;84.44;96465.82;1752265;80;20087;-78
2021/08/03 00:13:33;;;;;;;1.30;1.20;;;;;;;13.58;84.48;96465.22;1748720;80;20920;-78
2021/08/03 00:16:02;;;;;;;2.87;1.47;;;;;;;13.64;84.48;96468.83;1749445;80;21306;-78
2021/08/03 00:18:29;;;;;;;3.47;1.55;;;;;;;13.65;84.26;96465.22;1744864;80;21007;-78
2021/08/03 00:20:57;;;;;;;3.00;1.62;;;;;;;13.65;84.10;96466.02;1747798;80;20940;-78
2021/08/03 00:23:23;;;;;;;3.33;1.80;;;;;;;13.66;84.24;96467.62;1749364;80;20992;-78
2021/08/03 00:25:53;;;;;;;4.55;1.90;;;;;;;13.63;84.39;96471.95;1748751;80;20948;-78
2021/08/03 00:28:19;;;;;;;2.45;1.50;;;;;;;13.65;84.63;96472.55;1739430;80;20983;-78
2021/08/03 00:30:45;;;;;;;2.25;1.40;;;;;;;13.69;84.73;96469.06;1753713;80;21039;-78
2021/08/03 00:33:12;;;;;;;3.40;1.60;;;;;;;13.69;84.70;96463.34;1747545;80;20901;-78
2021/08/03 00:35:37;;;;;;;4.28;1.50;;;;;;;13.68;84.59;96466.15;1748854;80;21368;-78
2021/08/03 00:38:03;;;;;;;2.65;2.20;;;;;;;13.66;84.62;96472.84;1748500;80;20924;-78
2021/08/03 00:40:29;;;;;;;3.70;1.47;;;;;;;13.65;84.57;96476.47;1722597;80;21019;-78
2021/08/03 00:42:55;;;;;;;2.45;1.90;;;;;;;13.65;84.61;96476.97;1713853;82;20949;-78
2021/08/03 00:45:20;;;;;;;2.60;2.00;;;;;;;13.65;84.69;96476.97;1777096;80;21266;-78
2021/08/03 00:47:46;;;;;;;3.02;1.40;;;;;;;13.66;84.72;96475.96;1728821;82;20901;-78
2021/08/03 00:50:12;;;;;;;2.12;1.30;;;;;;;13.69;84.69;96476.89;1732517;80;21007;-78
2021/08/03 00:52:38;;;;;;;3.17;1.40;;;;;;;13.72;84.37;96474.69;1711478;82;20931;-78
2021/08/03 00:55:04;;;;;;;2.10;1.80;;;;;;;13.71;84.33;96476.99;1713407;81;21082;-78
2021/08/03 00:57:32;;;;;;;2.33;1.85;;;;;;;13.70;84.36;96479.30;1755833;80;21003;-78
2021/08/03 00:59:58;;;;;;;3.45;1.50;;;;;;;13.66;84.56;96478.58;1754015;80;20921;-78
2021/08/03 01:02:23;;;;;;;4.50;2.27;;;;;;;13.60;84.73;96472.34;1756182;80;20967;-78
2021/08/03 01:04:49;;;;;;;5.00;1.75;;;;;;;13.58;84.86;96469.13;1756184;80;20959;-78
2021/08/03 01:07:35;;;;;;;1.55;1.42;;;;;;;13.57;84.79;96471.44;1756138;80;20944;-78
2021/08/03 01:10:48;;;;;;;2.50;1.75;;;;;;;13.57;84.90;96473.25;1742759;80;21377;-78
2021/08/03 01:13:28;;;;;;;4.90;1.80;;;;;;;13.57;84.77;96469.33;1749281;80;20943;-78
2021/08/03 01:16:07;;;;;;;2.77;1.75;;;;;;;13.55;84.61;96465.63;1756142;80;21025;-78
2021/08/03 01:18:47;;;;;;;3.17;2.08;;;;;;;13.52;84.79;96462.11;1753977;80;21074;-78
2021/08/03 01:21:34;;;;;;;1.82;1.40;;;;;;;13.51;84.79;96469.13;1754989;80;21465;-78
2021/08/03 01:24:17;;;;;;;4.55;1.57;;;;;;;13.54;84.87;96467.92;1750879;80;20982;-78
2021/08/03 01:27:05;;;;;;;3.72;1.40;;;;;;;13.55;84.83;96460.90;1755882;80;21032;-79
2021/08/03 01:29:31;;;;;;;3.45;1.52;;;;;;;13.54;84.96;96460.09;1753643;80;21003;-78
2021/08/03 01:32:04;;;;;;;1.95;1.72;;;;;;;13.53;84.91;96453.27;1756056;80;20988;-78
2021/08/03 01:34:30;;;;;;;2.17;1.98;;;;;;;13.51;84.96;96459.20;1753090;80;20983;-79
2021/08/03 01:36:56;;;;;;;2.83;1.70;;;;;;;13.51;84.91;96462.61;1755791;80;20949;-78
2021/08/03 01:39:31;;;;;;;1.80;1.25;;;;;;;13.51;84.92;96462.61;1755633;80;21010;-79
2021/08/03 01:41:59;;;;;;;1.45;1.20;;;;;;;13.52;84.72;96464.72;1749688;80;21059;-79
2021/08/03 01:44:25;;;;;;;3.42;1.42;;;;;;;13.52;84.55;96464.72;1757189;80;21378;-79
2021/08/03 01:46:51;;;;;;;2.05;1.50;;;;;;;13.54;84.31;96461.41;1751154;80;20947;-79
2021/08/03 01:49:21;;;;;;;1.62;1.52;;;;;;;13.55;84.21;96463.01;1750241;80;21298;-79
2021/08/03 01:51:47;;;;;;;3.60;1.70;;;;;;;13.53;84.06;96466.32;1730393;80;20996;-78
2021/08/03 01:54:13;;;;;;;3.50;1.50;;;;;;;13.52;83.91;96468.63;1749687;80;20981;-79
2021/08/03 01:56:39;;;;;;;3.37;1.40;;;;;;;13.47;83.81;96470.51;1748760;80;21377;-79
2021/08/03 01:59:06;;;;;;;2.15;1.10;;;;;;;13.47;83.80;96473.62;1709064;83;21015;-78
2021/08/03 02:01:33;;;;;;;3.25;1.42;;;;;;;13.47;83.93;96476.23;1748920;80;21362;-79
2021/08/03 02:03:59;;;;;;;2.58;1.20;;;;;;;13.50;83.97;96475.83;1749040;80;21012;-79
2021/08/03 02:06:25;;;;;;;1.65;1.30;;;;;;;13.53;83.76;96474.16;1764216;80;21302;-79
2021/08/03 02:08:59;;;;;;;2.47;1.60;;;;;;;13.50;83.72;96478.44;1724005;82;21044;-78
2021/08/03 02:11:27;;;;;;;4.03;1.25;;;;;;;13.47;83.57;96477.03;1744847;80;21051;-78
2021/08/03 02:13:53;;;;;;;2.95;1.17;;;;;;;13.43;83.41;96483.66;1745895;80;21034;-78
2021/08/03 02:16:19;;;;;;;1.90;1.27;;;;;;;13.39;83.29;96481.64;1748666;80;20979;-78
2021/08/03 02:18:47;;;;;;;1.60;1.40;;;;;;;13.39;83.32;96485.56;1744423;80;20920;-78
2021/08/03 02:21:18;;;;;;;1.80;1.50;;;;;;;13.38;83.18;96483.95;1757223;80;20947;-78
2021/08/03 02:23:44;;;;;;;1.50;1.20;;;;;;;13.36;83.03;96488.06;1751396;80;20964;-78
2021/08/03 02:26:11;;;;;;;2.67;1.40;;;;;;;13.35;83.07;96493.48;1728814;80;20959;-78
2021/08/03 02:28:37;;;;;;;3.42;1.30;;;;;;;13.32;83.02;96493.85;1749174;80;21028;-78
2021/08/03 02:31:11;;;;;;;1.50;1.25;;;;;;;13.27;82.88;96493.14;1749804;80;20981;-78
2021/08/03 02:33:42;;;;;;;1.30;1.10;;;;;;;13.25;82.82;96484.70;1749269;80;21372;-78
2021/08/03 02:36:11;;;;;;;1.42;1.20;;;;;;;13.26;82.73;96490.23;1749334;80;21020;-78
2021/08/03 02:38:43;;;;;;;2.72;1.47;;;;;;;13.27;82.78;96494.95;1745048;80;21350;-78
2021/08/03 02:41:09;;;;;;;1.55;1.27;;;;;;;13.25;82.91;96489.13;1744304;81;21420;-79
2021/08/03 02:43:35;;;;;;;3.15;1.22;;;;;;;13.23;82.93;96488.52;1743654;81;20984;-79
2021/08/03 02:46:02;;;;;;;3.08;1.20;;;;;;;13.21;82.73;96494.73;1745985;81;21346;-78
2021/08/03 02:48:30;;;;;;;1.30;1.20;;;;;;;13.20;82.94;96490.52;1718795;81;21028;-79
2021/08/03 02:50:55;;;;;;;1.35;0.98;;;;;;;13.20;82.90;96485.30;1744017;81;20920;-79
2021/08/03 02:53:38;;;;;;;1.70;1.17;;;;;;;13.23;82.79;96493.23;1743595;81;20971;-79
2021/08/03 02:56:09;;;;;;;;;;;;;;;13.25;82.65;96493.03;1736606;81;20949;-79
2021/08/03 02:58:39;;;;;;;1.72;1.30;;;;;;;13.24;82.68;96497.95;1743429;81;20119;-78
2021/08/03 03:01:05;;;;;;;1.42;1.32;;;;;;;13.21;82.86;96503.87;1741505;81;21315;-80
2021/08/03 03:03:32;;;;;;;1.67;1.35;;;;;;;13.21;82.90;96506.48;1745081;81;20944;-79
2021/08/03 03:06:06;;;;;;;2.20;1.00;;;;;;;13.20;82.95;96508.78;1744277;81;21349;-79
2021/08/03 03:08:33;;;;;;;2.25;1.27;;;;;;;13.23;82.71;96514.11;1745458;81;21020;-78
2021/08/03 03:11:01;;;;;;;1.95;1.35;;;;;;;13.24;82.62;96517.02;1744808;81;21012;-78
2021/08/03 03:13:38;;;;;;;1.70;1.30;;;;;;;13.23;82.53;96519.33;1737594;81;21361;-78
2021/08/03 03:16:04;;;;;;;4.87;1.20;;;;;;;13.21;82.61;96517.41;1745493;81;20980;-78
2021/08/03 03:18:30;;;;;;;2.92;1.27;;;;;;;13.23;82.81;96519.83;1725174;81;20978;-78
2021/08/03 03:20:56;;;;;;;1.82;1.17;;;;;;;13.25;82.76;96524.34;1759769;80;20941;-78
2021/08/03 03:23:23;;;;;;;3.15;1.62;;;;;;;13.27;82.69;96532.78;1744256;81;20972;-78
2021/08/03 03:25:52;;;;;;;2.25;1.42;;;;;;;13.30;82.59;96530.58;1745138;81;20951;-78
2021/08/03 03:28:28;;;;;;;1.80;1.30;;;;;;;13.31;82.68;96525.66;1745232;81;20992;-78
2021/08/03 03:30:56;;;;;;;2.52;1.25;;;;;;;13.29;82.49;96532.08;1744110;81;20984;-78
2021/08/03 03:33:22;;;;;;;4.22;1.17;;;;;;;13.28;82.52;96533.89;1743988;81;21361;-79
2021/08/03 03:35:48;;;;;;;1.27;1.17;;;;;;;13.29;82.51;96532.89;1727829;81;20990;-78
2021/08/03 03:38:18;;;;;;;3.20;1.35;;;;;;;13.31;82.59;96537.41;1745526;81;21469;-78
2021/08/03 03:40:46;;;;;;;3.20;1.47;;;;;;;13.32;82.63;96534.30;1746416;81;21485;-79
2021/08/03 03:43:12;;;;;;;1.70;1.40;;;;;;;13.33;82.78;96535.41;1747165;80;21395;-78
2021/08/03 03:45:38;;;;;;;2.40;1.30;;;;;;;13.34;82.99;96539.66;1756302;80;20971;-79
2021/08/03 03:48:09;;;;;;;1.15;0.95;;;;;;;13.36;83.16;96541.56;1754935;80;20944;-78
2021/08/03 03:50:38;;;;;;;1.57;1.10;;;;;;;13.40;83.05;96543.28;1733784;82;20948;-79
2021/08/03 03:53:11;;;;;;;1.70;1.17;;;;;;;13.42;83.04;96539.47;1743526;80;20971;-78
2021/08/03 03:55:37;;;;;;;2.62;1.30;;;;;;;13.42;82.85;96536.86;1751894;80;21027;-78
2021/08/03 03:58:03;;;;;;;2.35;1.30;;;;;;;13.43;82.83;96537.16;1729390;82;20952;-78
2021/08/03 04:00:29;;;;;;;2.52;1.27;;;;;;;13.42;82.54;96536.86;1734609;80;21303;-78
2021/08/03 04:02:55;;;;;;;2.33;1.30;;;;;;;13.41;82.60;96541.77;1755222;80;20988;-78
2021/08/03 04:05:21;;;;;;;1.47;0.98;;;;;;;13.44;82.79;96545.80;1755404;80;21389;-78
2021/08/03 04:07:49;;;;;;;1.80;1.10;;;;;;;13.44;82.87;96545.80;1755576;80;20916;-78
2021/08/03 04:10:17;;;;;;;2.60;1.15;;;;;;;13.47;82.93;96541.48;1754491;80;21386;-78
2021/08/03 04:12:43;;;;;;;3.55;1.70;;;;;;;13.49;82.95;96550.72;1755054;82;20968;-78
2021/08/03 04:15:10;;;;;;;1.92;1.42;;;;;;;13.50;83.02;96542.39;1754377;80;21898;-78
2021/08/03 04:17:35;;;;;;;1.45;1.30;;;;;;;13.48;83.16;96545.20;1755860;80;21325;-78
2021/08/03 04:20:01;;;;;;;1.47;1.37;;;;;;;13.47;83.12;96548.81;1755558;80;20908;-78
2021/08/03 04:22:28;;;;;;;4.67;1.42;;;;;;;13.49;83.27;96544.20;1756776;80;20964;-78
2021/08/03 04:24:53;;;;;;;2.02;1.20;;;;;;;13.54;83.40;96550.16;1765750;80;20947;-78
2021/08/03 04:27:19;;;;;;;2.12;1.47;;;;;;;13.60;83.50;96551.98;1761344;80;20963;-78
2021/08/03 04:29:45;;;;;;;3.27;1.30;;;;;;;13.65;83.59;96548.77;1753218;80;20928;-78
2021/08/03 04:32:11;;;;;;;3.87;1.50;;;;;;;13.67;83.67;96546.29;1754723;80;20984;-78
2021/08/03 04:34:37;;;;;;;2.47;1.65;;;;;;;13.68;84.01;96541.88;1754821;80;21032;-78
2021/08/03 04:37:03;;;;;;;1.77;1.67;;;;;;;13.69;84.16;96544.28;1754047;80;21341;-78
2021/08/03 04:39:28;;;;;;;2.15;1.40;;;;;;;13.71;84.31;96548.80;1753394;80;21043;-78
2021/08/03 04:41:56;;;;;;;1.72;1.42;;;;;;;13.74;84.09;96556.23;1738941;80;20987;-79
2021/08/03 04:44:22;;;;;;;3.30;1.70;;;;;;;13.84;83.91;96548.54;1754335;80;20988;-78
2021/08/03 04:46:48;;;;;;;2.87;2.20;;;;;;;13.90;84.39;96543.32;1756200;80;20940;-78
2021/08/03 04:49:14;;;;;;;2.27;1.60;;;;;;;13.95;84.52;96542.72;1753155;80;20928;-78
2021/08/03 04:51:39;;;;;;;3.77;1.67;;;;;;;13.98;84.61;96539.20;1749030;80;21326;-78
2021/08/03 04:54:06;;;;;;;1.90;1.25;;;;;;;14.02;84.69;96542.23;1755784;80;20979;-78
2021/08/03 04:56:32;;;;;;;2.35;1.50;;;;;;;14.08;84.79;96546.66;1759693;80;21003;-78
2021/08/03 04:58:58;;;;;;;1.75;1.57;;;;;;;14.15;84.94;96537.50;1753753;80;21027;-78
2021/08/03 05:01:23;;;;;;;2.95;1.42;;;;;;;14.23;85.16;96534.71;1766334;80;20974;-78
2021/08/03 05:03:50;;;;;;;3.70;1.60;;;;;;;14.33;85.35;96541.16;1750038;80;21023;-78
2021/08/03 05:06:15;;;;;;;5.05;1.92;;;;;;;14.41;85.50;96546.67;1751258;80;21318;-78
2021/08/03 05:08:41;;;;;;;3.22;1.35;;;;;;;14.48;85.82;96541.47;1755848;80;20932;-78
2021/08/03 05:11:07;;;;;;;3.27;1.45;;;;;;;14.52;86.03;96537.46;1752191;80;20944;-78
2021/08/03 05:13:32;;;;;;;2.50;1.67;;;;;;;14.56;86.23;96536.05;1750811;80;21270;-78
2021/08/03 05:15:58;;;;;;;2.85;1.47;;;;;;;14.62;86.23;96540.45;1767216;80;21031;-78
2021/08/03 05:18:24;;;;;;;1.95;1.10;;;;;;;14.70;86.12;96540.25;1751011;80;20947;-78
2021/08/03 05:20:50;;;;;;;4.92;1.60;;;;;;;14.76;85.92;96544.66;1758165;80;20975;-78
2021/08/03 05:23:16;;;;;;;5.33;2.02;;;;;;;14.80;85.98;96539.31;1765717;80;20992;-78
2021/08/03 05:25:41;;;;;;;3.70;1.60;;;;;;;14.82;85.96;96537.33;1755424;80;20940;-78
2021/08/03 05:28:08;;;;;;;3.70;1.40;;;;;;;14.84;85.99;96540.54;1752103;80;21339;-78
2021/08/03 05:30:34;;;;;;;2.67;1.55;;;;;;;14.87;86.04;96531.47;1754145;80;21311;-78
2021/08/03 05:33:00;;;;;;;1.72;1.40;;;;;;;14.91;86.15;96533.97;1745215;80;21000;-78
2021/08/03 05:35:26;;;;;;;3.72;1.30;;;;;;;14.96;86.15;96537.57;1752326;80;21370;-78
2021/08/03 05:37:51;;;;;;;1.85;1.40;;;;;;;14.99;85.93;96533.26;1757642;80;21043;-78
2021/08/03 05:40:20;;;;;;;2.45;1.62;;;;;;;15.08;86.06;96536.95;1748422;80;20979;-78
2021/08/03 05:42:45;;;;;;;2.00;1.42;;;;;;;15.13;86.11;96529.27;1748875;80;20999;-78
2021/08/03 05:45:11;;;;;;;3.25;1.67;;;;;;;15.19;86.41;96535.01;1729860;80;20973;-78
2021/08/03 05:47:36;;;;;;;2.95;1.40;;;;;;;15.26;86.33;96538.39;1755214;80;21028;-78
2021/08/03 05:50:05;;;;;;;2.22;1.22;;;;;;;15.30;86.17;96538.30;1755476;80;20960;-78
2021/08/03 05:52:32;;;;;;;3.67;1.12;;;;;;;15.36;86.29;96536.66;1748115;80;21366;-78
2021/08/03 05:54:58;;;;;;;1.57;1.47;;;;;;;15.41;86.06;96543.38;1755060;80;20982;-78
2021/08/03 05:57:23;;;;;;;2.87;1.87;;;;;;;15.48;85.98;96537.12;1754954;80;21392;-78
2021/08/03 05:59:49;;;;;;;3.05;1.80;;;;;;;15.52;85.65;96536.19;1755128;80;20979;-78
2021/08/03 06:02:15;;;;;;;3.15;1.55;;;;;;;15.51;85.52;96544.55;1756581;80;20979;-78
2021/08/03 06:04:40;;;;;;;3.20;1.30;;;;;;;15.51;85.12;96544.55;1729750;82;21341;-78
2021/08/03 06:07:07;;;;;;;1.12;1.02;;;;;;;15.51;84.40;96541.93;1756063;80;20935;-78
2021/08/03 06:09:36;;;;;;;2.10;1.30;;;;;;;15.51;84.32;96547.17;1744718;80;21335;-78
2021/08/03 06:12:02;;;;;;;4.55;1.30;;;;;;;15.58;84.07;96553.67;1773836;80;21031;-78
2021/08/03 06:14:41;;;;;;;3.22;1.30;;;;;;;15.63;83.88;96546.05;1761869;80;20912;-78
2021/08/03 06:17:15;;;;;;;1.22;1.10;;;;;;;15.66;83.98;96543.51;1752711;80;21012;-79
2021/08/03 06:19:48;;;;;;;2.02;1.20;;;;;;;15.71;84.13;96545.78;1776884;80;20920;-78
2021/08/03 06:22:15;;;;;;;1.85;1.10;;;;;;;15.77;83.78;96545.44;1752342;80;21303;-79
2021/08/03 06:24:41;;;;;;;1.47;1.10;;;;;;;15.83;83.67;96555.10;1753280;80;20959;-79
2021/08/03 06:27:16;;;;;;;3.30;1.40;;;;;;;15.89;83.34;96549.02;1756172;80;21342;-79
2021/08/03 06:29:42;;;;;;;3.20;1.25;;;;;;;15.95;83.28;96557.36;1762338;80;20947;-78
2021/08/03 06:32:09;;;;;;;1.72;1.20;;;;;;;16.05;83.29;96560.81;1761769;80;20967;-79
2021/08/03 06:34:38;;;;;;;1.62;1.52;;;;;;;16.14;83.01;96559.05;1755698;80;20962;-79
2021/08/03 06:37:04;;;;;;;1.50;1.40;;;;;;;16.24;82.28;96566.42;1760843;80;20982;-79
2021/08/03 06:39:29;;;;;;;3.90;1.85;;;;;;;16.32;82.13;96565.38;1758649;80;21350;-79
2021/08/03 06:42:34;;;;;;;3.50;2.15;;;;;;;16.38;81.87;96566.62;1746176;80;20941;-79
2021/08/03 06:45:05;;;;;;;2.22;1.25;;;;;;;16.45;81.41;96561.34;1744396;80;20996;-79
2021/08/03 06:47:48;;;;;;;2.33;2.10;;;;;;;16.55;82.00;96564.78;1750753;80;21011;-79
2021/08/03 06:50:14;;;;;;;1.77;1.50;;;;;;;16.59;81.69;96560.20;1741035;80;20960;-79
2021/08/03 06:52:40;;;;;;;2.20;1.87;;;;;;;16.65;81.26;96565.11;1719780;80;20933;-79
2021/08/03 06:55:07;;;;;;;1.90;1.60;;;;;;;16.72;79.52;96564.56;1690757;82;20981;-79
2021/08/03 06:57:34;;;;;;;2.67;1.62;;;;;;;16.80;79.91;96566.92;1720469;82;20929;-79
2021/08/03 07:00:06;;;;;;;1.90;1.60;;;;;;;16.88;79.66;96568.45;1718551;82;20939;-79
2021/08/03 07:02:38;;;;;;;1.70;1.60;;;;;;;16.96;79.33;96569.50;1703431;82;20986;-79
2021/08/03 07:05:09;;;;;;;;;;;;;;;16.96;77.71;96572.13;1732230;82;20979;-79
2021/08/03 07:07:35;;;;;;;1.90;1.72;;;;;;;17.05;77.58;96574.75;1729523;82;20086;-79
2021/08/03 07:10:06;;;;;;;3.22;2.67;;;;;;;17.12;76.11;96572.07;1723786;82;20942;-79
2021/08/03 07:12:32;;;;;;;2.00;1.55;;;;;;;17.17;76.86;96569.59;1719204;82;20958;-79
2021/08/03 07:14:57;;;;;;;2.85;1.85;;;;;;;17.18;76.87;96566.73;1728608;82;20939;-79
2021/08/03 07:17:25;;;;;;;2.52;1.55;;;;;;;17.20;76.78;96566.52;1731982;81;20922;-79
2021/08/03 07:19:50;;;;;;;2.40;1.70;;;;;;;17.27;76.50;96577.77;1736316;81;21049;-79
2021/08/03 07:22:16;;;;;;;1.62;1.45;;;;;;;17.32;75.20;96569.52;1736378;81;20994;-79
2021/08/03 07:24:47;;;;;;;2.20;1.90;;;;;;;17.37;75.35;96571.48;1736256;81;21023;-79
2021/08/03 07:27:13;;;;;;;3.27;1.98;;;;;;;17.43;75.49;96574.55;1745535;81;21283;-79
2021/08/03 07:29:39;;;;;;;2.25;1.98;;;;;;;17.48;75.52;96575.20;1727767;81;20934;-79
2021/08/03 07:32:06;;;;;;;2.70;1.82;;;;;;;17.50;72.90;96570.53;1747566;81;20937;-80
2021/08/03 07:34:32;;;;;;;3.85;1.65;;;;;;;17.49;72.96;96575.49;1697544;83;21051;-80
2021/08/03 07:37:00;;;;;;;1.72;1.62;;;;;;;17.51;74.17;96575.55;1722657;80;20998;-80
2021/08/03 07:39:25;;;;;;;1.92;1.70;;;;;;;17.56;73.79;96573.58;1696249;82;20990;-80
2021/08/03 07:41:53;;;;;;;3.12;1.62;;;;;;;17.61;73.68;96575.85;1710115;82;21775;-78
2021/08/03 07:44:20;;;;;;;1.70;1.52;;;;;;;17.71;75.18;96576.66;1705681;82;21025;-78
2021/08/03 07:46:46;;;;;;;2.55;1.80;;;;;;;17.73;72.52;96577.23;1757973;80;20991;-78
2021/08/03 07:49:11;;;;;;;2.37;2.00;;;;;;;17.75;72.73;96575.20;1729783;80;20944;-78
2021/08/03 07:51:37;;;;;;;3.15;1.70;;;;;;;17.78;72.02;96572.64;1743802;80;20991;-78
2021/08/03 07:54:03;;;;;;;1.95;1.57;;;;;;;17.81;71.94;96574.82;1748578;80;20948;-78
2021/08/03 07:56:28;;;;;;;3.10;1.90;;;;;;;17.87;72.54;96573.92;1748420;80;20940;-78
2021/08/03 07:58:54;;;;;;;2.37;1.70;;;;;;;17.94;73.54;96576.77;1757821;80;21518;-78
2021/08/03 08:01:20;;;;;;;2.65;1.40;;;;;;;18.00;73.06;96573.75;1757301;80;21234;-78
2021/08/03 08:03:46;;;;;;;1.80;1.50;;;;;;;18.08;72.63;96571.33;1738529;80;20932;-78
2021/08/03 08:06:13;;;;;;;2.27;1.50;;;;;;;18.13;73.24;96564.88;1756625;80;21043;-78
2021/08/03 08:08:38;;;;;;;2.50;1.72;;;;;;;18.22;74.49;96565.66;1746156;80;21011;-78
2021/08/03 08:11:04;;;;;;;2.33;1.40;;;;;;;18.25;74.77;96565.20;1738699;80;21390;-78
2021/08/03 08:13:30;;;;;;;3.90;1.45;;;;;;;18.28;74.54;96562.63;1742628;80;21050;-78
2021/08/03 08:15:56;;;;;;;2.05;1.20;;;;;;;18.32;73.91;96570.35;1750386;80;21027;-78
2021/08/03 08:18:21;;;;;;;4.10;1.50;;;;;;;18.40;72.00;96565.30;1733165;80;22102;-78
2021/08/03 08:20:47;;;;;;;2.02;1.20;;;;;;;18.51;71.18;96564.48;1754476;80;21025;-78
2021/08/03 08:23:14;;;;;;;2.10;1.30;;;;;;;18.64;69.63;96565.63;1733153;80;21055;-78
2021/08/03 08:25:39;;;;;;;2.70;1.52;;;;;;;18.74;69.26;96567.19;1757661;80;21022;-77
2021/08/03 08:28:05;;;;;;;2.60;1.50;;;;;;;18.87;69.76;96570.09;1757803;80;21427;-78
2021/08/03 08:30:32;;;;;;;3.50;1.80;;;;;;;19.02;69.58;96566.48;1707637;82;20958;-78
2021/08/03 08:32:57;;;;;;;2.00;1.30;;;;;;;19.21;68.55;96566.38;1744046;80;20986;-78
2021/08/03 08:35:23;;;;;;;2.12;1.47;;;;;;;19.32;69.85;96558.94;1749583;80;21382;-78
2021/08/03 08:37:49;;;;;;;2.22;1.70;;;;;;;19.40;67.90;96558.08;1730913;80;21109;-78
2021/08/03 08:40:19;;;;;;;1.70;1.42;;;;;;;19.48;68.23;96563.48;1752657;80;20974;-78
2021/08/03 08:42:46;;;;;;;1.90;1.60;;;;;;;19.59;68.64;96557.42;1728116;80;21091;-78
2021/08/03 08:45:12;;;;;;;2.20;1.67;;;;;;;19.47;67.27;96560.05;1733034;80;20992;-78
2021/08/03 08:47:42;;;;;;;2.20;2.00;;;;;;;19.45;67.28;96555.53;1735548;80;21382;-78
2021/08/03 08:50:08;;;;;;;2.15;1.37;;;;;;;19.63;66.61;96561.70;1753338;80;21350;-78
2021/08/03 08:52:35;;;;;;;1.30;1.20;;;;;;;19.81;66.85;96554.13;1743049;80;20967;-78
2021/08/03 08:55:02;;;;;;;2.30;1.20;;;;;;;19.97;67.84;96548.89;1754568;80;21007;-78
2021/08/03 08:57:27;;;;;;;1.50;1.30;;;;;;;20.11;68.15;96548.61;1744866;80;20920;-78
2021/08/03 08:59:53;;;;;;;3.65;1.67;;;;;;;20.15;66.89;96547.89;1741661;80;21299;-78
2021/08/03 09:02:40;;;;;;;2.25;1.70;;;;;;;20.10;64.58;96546.48;1746372;80;20955;-78
2021/08/03 09:05:09;;;;;;;2.37;1.50;;;;;;;19.97;66.03;96545.46;1741760;80;21011;-78
2021/08/03 09:07:47;;;;;;;1.77;1.45;;;;;;;20.00;66.17;96558.97;1740526;80;20952;-78
2021/08/03 09:10:40;;;;;;;1.60;1.50;;;;;;;20.00;65.23;96557.65;1719277;80;21016;-79
2021/08/03 09:13:14;;;;;;;1.80;1.40;;;;;;;20.01;66.36;96555.32;1744719;80;20990;-79
2021/08/03 09:15:46;;;;;;;1.37;1.27;;;;;;;20.16;66.73;96552.12;1776456;80;21019;-78
2021/08/03 09:18:25;;;;;;;2.08;1.35;;;;;;;20.31;64.79;96554.22;1751971;80;21038;-78
2021/08/03 09:20:51;;;;;;;1.75;1.32;;;;;;;20.30;64.39;96549.46;1768966;80;20928;-78
2021/08/03 09:23:17;;;;;;;2.10;1.50;;;;;;;20.42;64.21;96555.23;1735828;80;21341;-78
2021/08/03 09:25:55;;;;;;;2.75;1.60;;;;;;;20.45;62.82;96551.58;1751834;80;21065;-78
2021/08/03 09:28:21;;;;;;;1.70;1.35;;;;;;;20.50;64.36;96556.14;1687515;83;21008;-79
2021/08/03 09:30:47;;;;;;;1.87;1.35;;;;;;;20.77;64.65;96551.02;1689405;83;21011;-79
2021/08/03 09:33:21;;;;;;;2.65;1.77;;;;;;;20.94;63.72;96548.63;1683409;83;21048;-79
2021/08/03 09:35:47;;;;;;;1.80;1.20;;;;;;;21.04;65.20;96549.82;1673931;83;21003;-79
2021/08/03 09:38:19;;;;;;;2.12;1.30;;;;;;;20.97;62.79;96549.98;1675828;84;20975;-79
2021/08/03 09:40:46;;;;;;;4.55;3.83;;;;;;;20.85;63.21;96549.30;1691933;83;21088;-79
2021/08/03 09:43:16;;;;;;;26.25;19.62;;;;;;;20.76;63.22;96544.14;1698662;83;21062;-79
2021/08/03 09:45:48;;;;;;;3.47;2.77;;;;;;;20.79;63.84;96541.00;1758107;81;21003;-78
2021/08/03 09:48:17;;;;;;;4.33;2.33;;;;;;;20.99;63.71;96547.92;1751811;80;20972;-78
2021/08/03 09:51:05;;;;;;;2.12;1.92;;;;;;;21.09;62.86;96545.92;1729646;80;20956;-78
2021/08/03 09:53:40;;;;;;;2.30;1.50;;;;;;;21.21;61.34;96543.97;1728483;80;21222;-78
2021/08/03 09:56:26;;;;;;;2.00;1.42;;;;;;;21.27;61.57;96541.17;1731842;80;20961;-78
2021/08/03 09:59:02;;;;;;;3.33;1.30;;;;;;;21.38;62.09;96537.34;1751448;80;21033;-79
2021/08/03 10:01:32;;;;;;;2.60;1.30;;;;;;;21.38;60.15;96534.17;1723751;82;21084;-79
2021/08/03 10:04:02;;;;;;;2.08;1.62;;;;;;;21.21;57.94;96543.97;1747658;80;21369;-79
2021/08/03 10:06:28;;;;;;;1.70;1.40;;;;;;;20.97;59.03;96536.77;1742429;80;21082;-79
2021/08/03 10:08:54;;;;;;;2.80;2.00;;;;;;;20.83;62.15;96539.50;1740723;81;21000;-79
2021/08/03 10:11:20;;;;;;;2.58;1.40;;;;;;;20.72;61.73;96534.59;1732058;80;21005;-79
2021/08/03 10:13:46;;;;;;;3.45;2.30;;;;;;;20.67;62.43;96538.48;1740541;80;21062;-79
2021/08/03 10:16:12;;;;;;;1.75;1.62;;;;;;;20.67;62.70;96538.48;1736978;80;21051;-79
2021/08/03 10:18:40;;;;;;;1.70;1.60;;;;;;;20.65;63.59;96539.22;1742548;80;21010;-79
2021/08/03 10:21:07;;;;;;;2.33;1.60;;;;;;;20.66;65.63;96540.81;1747423;80;21010;-79
2021/08/03 10:23:34;;;;;;;2.12;1.67;;;;;;;20.82;66.47;96542.63;1744936;80;21051;-79
2021/08/03 10:26:00;;;;;;;2.50;1.75;;;;;;;21.01;66.30;96541.87;1737199;80;21051;-79
2021/08/03 10:28:28;;;;;;;2.22;1.62;;;;;;;21.42;65.11;96535.27;1724328;80;21051;-79
2021/08/03 10:30:56;;;;;;;1.57;1.30;;;;;;;21.42;65.11;96535.27;1726552;80;20959;-79
2021/08/03 10:33:43;;;;;;;2.22;1.82;;;;;;;21.61;63.77;96543.68;1716843;81;21381;-79
2021/08/03 10:36:30;;;;;;;2.75;1.47;;;;;;;21.56;62.83;96541.78;1747933;80;21372;-79
2021/08/03 10:39:09;;;;;;;2.00;1.35;;;;;;;21.57;62.45;96541.27;1749636;80;20962;-78
2021/08/03 10:42:01;;;;;;;2.83;1.50;;;;;;;21.53;62.06;96539.64;1751657;80;20997;-79
2021/08/03 10:44:48;;;;;;;2.12;1.60;;;;;;;21.57;62.77;96534.66;1742615;80;21003;-79
2021/08/03 10:47:41;;;;;;;1.70;1.50;;;;;;;21.78;62.80;96530.38;1750489;80;20923;-79
2021/08/03 10:50:29;;;;;;;1.70;1.47;;;;;;;21.91;63.43;96528.66;1749284;80;21014;-79
2021/08/03 10:52:56;;;;;;;2.67;1.40;;;;;;;21.76;64.93;96521.38;1738093;80;20959;-78
2021/08/03 10:55:44;;;;;;;1.92;1.55;;;;;;;21.60;64.54;96523.58;1731922;80;21022;-79
2021/08/03 10:58:16;;;;;;;2.15;1.70;;;;;;;21.46;64.97;96523.16;1752091;80;21762;-78
2021/08/03 11:00:56;;;;;;;2.42;1.50;;;;;;;21.30;65.93;96520.05;1740833;80;20947;-78
2021/08/03 11:03:36;;;;;;;1.98;1.70;;;;;;;21.21;66.58;96522.31;1748700;80;20996;-78
2021/08/03 11:06:17;;;;;;;3.85;1.75;;;;;;;21.08;66.42;96517.91;1717269;82;20972;-78
2021/08/03 11:08:44;;;;;;;1.70;1.60;;;;;;;20.92;66.63;96517.70;1754516;80;21004;-78
2021/08/03 11:11:25;;;;;;;2.33;1.90;;;;;;;20.76;67.20;96513.77;1748775;80;21440;-78
2021/08/03 11:14:06;;;;;;;1.60;1.50;;;;;;;20.62;67.60;96517.27;1748493;80;20977;-78
2021/08/03 11:16:37;;;;;;;2.65;2.00;;;;;;;20.45;68.45;96518.59;1749807;80;21018;-78
2021/08/03 11:19:05;;;;;;;2.00;1.80;;;;;;;20.34;69.21;96515.50;1750729;80;20951;-78
2021/08/03 11:21:45;;;;;;;3.70;1.67;;;;;;;20.30;70.27;96519.12;1753002;80;21010;-78
2021/08/03 11:24:17;;;;;;;1.80;1.40;;;;;;;20.27;70.66;96520.13;1739887;80;21042;-78
2021/08/03 11:26:53;;;;;;;2.25;1.82;;;;;;;20.19;71.03;96521.33;1752864;80;21086;-79
2021/08/03 11:29:22;;;;;;;2.35;1.72;;;;;;;20.15;71.30;96518.87;1750769;80;20986;-78
2021/08/03 11:31:53;;;;;;;3.02;2.10;;;;;;;20.12;71.78;96514.59;1751541;80;20961;-78
2021/08/03 11:34:36;;;;;;;2.98;2.00;;;;;;;20.08;72.04;96518.23;1757715;80;20960;-78
2021/08/03 11:37:14;;;;;;;1.82;1.62;;;;;;;20.18;72.31;96513.14;1751790;80;20987;-78
2021/08/03 11:39:50;;;;;;;2.95;1.70;;;;;;;20.52;72.97;96510.01;1749127;80;20982;-78
2021/08/03 11:42:38;;;;;;;2.33;2.05;;;;;;;20.72;69.76;96506.86;1726701;80;21030;-78
2021/08/03 11:45:14;;;;;;;3.20;1.95;;;;;;;20.76;69.18;96509.81;1700396;82;21014;-78